createdAt,value
2023-04-25T00:00:45.009Z,100657.38
2023-04-25T00:01:46.862Z,100662.75
2023-04-25T00:02:48.977Z,100657.38
2023-04-25T00:03:51.882Z,100657.38
2023-04-25T00:04:54.279Z,100652.34
2023-04-25T00:05:57.876Z,100660.06
2023-04-25T00:07:02.545Z,100654.72
2023-04-25T00:08:05.255Z,100657.38
2023-04-25T00:09:12.062Z,100654.03
2023-04-25T00:10:13.929Z,100654.72
2023-04-25T00:11:15.836Z,100648.97
2023-04-25T00:12:18.121Z,100625.13
2023-04-25T00:13:20.371Z,100653.03
2023-04-25T00:14:22.657Z,100654.34
2023-04-25T00:15:25.420Z,100627.50
2023-04-25T00:16:28.156Z,100642.50
2023-04-25T00:17:30.602Z,100643.50
2023-04-25T00:18:34.294Z,100637.13
2023-04-25T00:19:36.090Z,100630.41
2023-04-25T00:20:38.022Z,100630.25
2023-04-25T00:21:41.754Z,100634.59
2023-04-25T00:22:43.564Z,100628.41
2023-04-25T00:23:46.901Z,100635.44
2023-04-25T00:24:48.936Z,100622.81
2023-04-25T00:25:51.672Z,100629.41
2023-04-25T00:26:53.535Z,100629.41
2023-04-25T00:27:56.317Z,100619.47
2023-04-25T00:28:58.137Z,100634.91
2023-04-25T00:30:00.213Z,100629.56
2023-04-25T00:31:02.097Z,100631.41
2023-04-25T00:32:04.227Z,100621.50
2023-04-25T00:33:06.358Z,100624.19
2023-04-25T00:34:09.360Z,100626.03
2023-04-25T00:35:11.600Z,100623.38
2023-04-25T00:36:13.853Z,100602.34
2023-04-25T00:37:15.984Z,100622.50
2023-04-25T00:38:18.496Z,100617.34
2023-04-25T00:39:20.593Z,100619.16
2023-04-25T00:40:22.718Z,100604.75
2023-04-25T00:41:26.998Z,100609.28
2023-04-25T00:42:29.824Z,100608.31
2023-04-25T00:43:33.083Z,100606.44
2023-04-25T00:44:36.661Z,100603.94
2023-04-25T00:45:40.350Z,100607.63
2023-04-25T00:46:42.789Z,100594.38
2023-04-25T00:47:45.589Z,100603.09
2023-04-25T00:48:47.739Z,100608.44
2023-04-25T00:49:49.633Z,100592.13
2023-04-25T00:50:55.154Z,100601.41
2023-04-25T00:51:57.589Z,100589.47
2023-04-25T00:52:59.571Z,100598.72
2023-04-25T00:54:02.606Z,100586.34
2023-04-25T00:55:04.840Z,100587.34
2023-04-25T00:56:07.069Z,100593.50
2023-04-25T00:57:09.064Z,100560.25
2023-04-25T00:58:11.004Z,100577.94
2023-04-25T00:59:13.005Z,100589.00
2023-04-25T01:00:15.866Z,100585.97
2023-04-25T01:01:19.301Z,100589.00
2023-04-25T01:02:21.846Z,100594.81
2023-04-25T01:03:24.225Z,100588.31
2023-04-25T01:04:28.452Z,100582.97
2023-04-25T01:05:30.745Z,100592.69
2023-04-25T01:06:33.020Z,100584.78
2023-04-25T01:07:35.265Z,100588.63
2023-04-25T01:08:39.612Z,100579.44
2023-04-25T01:09:42.104Z,100572.03
2023-04-25T01:10:43.935Z,100590.16
2023-04-25T01:11:45.718Z,100591.00
2023-04-25T01:12:48.355Z,100594.69
2023-04-25T01:13:50.299Z,100593.81
2023-04-25T01:14:52.401Z,100594.81
2023-04-25T01:15:54.399Z,100596.66
2023-04-25T01:16:56.472Z,100594.13
2023-04-25T01:17:59.288Z,100596.66
2023-04-25T01:19:01.460Z,100601.16
2023-04-25T01:20:06.770Z,100602.16
2023-04-25T01:21:12.785Z,100608.19
2023-04-25T01:22:15.417Z,100593.06
2023-04-25T01:23:17.456Z,100608.06
2023-04-25T01:24:19.854Z,100599.47
2023-04-25T01:25:22.433Z,100606.84
2023-04-25T01:26:25.463Z,100610.19
2023-04-25T01:27:28.604Z,100617.22
2023-04-25T01:28:30.727Z,100616.41
2023-04-25T01:29:35.649Z,100617.53
2023-04-25T01:30:38.474Z,100624.44
2023-04-25T01:31:40.913Z,100625.44
2023-04-25T01:32:44.088Z,100632.47
2023-04-25T01:33:46.626Z,100619.00
2023-04-25T01:34:48.481Z,100636.13
2023-04-25T01:35:50.664Z,100636.13
2023-04-25T01:36:55.648Z,100636.97
2023-04-25T01:37:57.724Z,100636.13
2023-04-25T01:38:59.656Z,100625.44
2023-04-25T01:40:02.238Z,100625.44
2023-04-25T01:41:04.307Z,100610.97
2023-04-25T01:42:06.383Z,100623.75
2023-04-25T01:43:13.140Z,100615.84
2023-04-25T01:44:16.469Z,100612.03
2023-04-25T01:45:18.649Z,100600.28
2023-04-25T01:46:20.603Z,100598.59
2023-04-25T01:47:22.459Z,100601.66
2023-04-25T01:48:24.432Z,100603.16
2023-04-25T01:49:26.445Z,100612.19
2023-04-25T01:50:28.318Z,100599.78
2023-04-25T01:51:31.496Z,100596.13
2023-04-25T01:52:33.912Z,100593.44
2023-04-25T01:53:35.879Z,100596.97
2023-04-25T01:54:39.431Z,100598.81
2023-04-25T01:55:41.488Z,100590.78
2023-04-25T01:56:51.516Z,100589.78
2023-04-25T01:57:54.477Z,100587.09
2023-04-25T01:59:05.213Z,100584.28
2023-04-25T02:00:25.167Z,100585.66
2023-04-25T02:01:27.085Z,100575.25
2023-04-25T02:02:46.900Z,100573.09
2023-04-25T02:04:07.805Z,100577.44
2023-04-25T02:05:12.269Z,100580.28
2023-04-25T02:06:15.642Z,100575.25
2023-04-25T02:07:19.862Z,100569.03
2023-04-25T02:08:28.867Z,100566.53
2023-04-25T02:09:31.311Z,100571.88
2023-04-25T02:10:34.171Z,100570.22
2023-04-25T02:11:54.821Z,100565.69
2023-04-25T02:13:05.518Z,100565.38
2023-04-25T02:14:25.753Z,100565.22
2023-04-25T02:15:41.018Z,100559.50
2023-04-25T02:16:55.267Z,100556.50
2023-04-25T02:17:59.052Z,100566.38
2023-04-25T02:19:01.204Z,100568.53
2023-04-25T02:20:03.836Z,100556.44
2023-04-25T02:21:05.790Z,100573.03
2023-04-25T02:22:08.447Z,100568.28
2023-04-25T02:23:10.399Z,100565.47
2023-04-25T02:24:12.307Z,100568.84
2023-04-25T02:25:14.761Z,100560.81
2023-04-25T02:26:16.632Z,100565.16
2023-04-25T02:27:18.512Z,100561.81
2023-04-25T02:28:20.460Z,100566.97
2023-04-25T02:29:22.584Z,100580.38
2023-04-25T02:30:24.394Z,100569.66
2023-04-25T02:31:27.021Z,100568.84
2023-04-25T02:32:29.020Z,100577.69
2023-04-25T02:33:31.007Z,100571.50
2023-04-25T02:34:33.378Z,100566.16
2023-04-25T02:35:36.316Z,100567.16
2023-04-25T02:36:38.091Z,100550.88
2023-04-25T02:37:41.167Z,100561.81
2023-04-25T02:38:42.969Z,100558.13
2023-04-25T02:39:44.742Z,100556.44
2023-04-25T02:40:47.811Z,100546.75
2023-04-25T02:41:49.582Z,100554.78
2023-04-25T02:42:51.428Z,100552.91
2023-04-25T02:43:54.259Z,100534.25
2023-04-25T02:44:56.063Z,100551.41
2023-04-25T02:45:57.863Z,100558.44
2023-04-25T02:46:59.710Z,100542.84
2023-04-25T02:48:01.588Z,100553.09
2023-04-25T02:49:03.480Z,100549.56
2023-04-25T02:50:06.347Z,100555.06
2023-04-25T02:51:08.186Z,100556.75
2023-04-25T02:52:10.115Z,100551.41
2023-04-25T02:53:11.952Z,100546.06
2023-04-25T02:54:20.610Z,100546.06
2023-04-25T02:55:25.657Z,100548.56
2023-04-25T02:56:29.695Z,100552.09
2023-04-25T02:57:32.431Z,100552.22
2023-04-25T02:58:34.434Z,100547.72
2023-04-25T02:59:36.357Z,100548.72
2023-04-25T03:00:38.178Z,100553.09
2023-04-25T03:01:40.144Z,100557.59
2023-04-25T03:02:42.048Z,100555.91
2023-04-25T03:03:43.961Z,100544.38
2023-04-25T03:04:45.819Z,100545.19
2023-04-25T03:05:47.946Z,100543.50
2023-04-25T03:06:52.002Z,100547.03
2023-04-25T03:07:56.190Z,100536.16
2023-04-25T03:08:58.062Z,100540.69
2023-04-25T03:10:00.809Z,100546.88
2023-04-25T03:11:05.264Z,100544.06
2023-04-25T03:12:07.315Z,100544.19
2023-04-25T03:13:09.835Z,100545.19
2023-04-25T03:14:11.971Z,100546.06
2023-04-25T03:15:13.780Z,100543.50
2023-04-25T03:16:15.676Z,100512.06
2023-04-25T03:17:17.495Z,100535.66
2023-04-25T03:18:19.404Z,100536.47
2023-04-25T03:19:21.469Z,100544.38
2023-04-25T03:20:23.554Z,100517.09
2023-04-25T03:21:26.172Z,100533.81
2023-04-25T03:22:28.112Z,100528.44
2023-04-25T03:23:30.030Z,100533.66
2023-04-25T03:24:31.913Z,100530.31
2023-04-25T03:25:34.152Z,100532.97
2023-04-25T03:26:35.929Z,100532.97
2023-04-25T03:27:37.785Z,100530.31
2023-04-25T03:28:40.780Z,100527.19
2023-04-25T03:29:42.700Z,100526.78
2023-04-25T03:30:45.468Z,100527.63
2023-04-25T03:31:47.346Z,100524.94
2023-04-25T03:32:49.253Z,100519.16
2023-04-25T03:33:53.075Z,100526.63
2023-04-25T03:34:56.987Z,100524.78
2023-04-25T03:36:00.830Z,100526.63
2023-04-25T03:37:04.267Z,100521.41
2023-04-25T03:38:10.803Z,100520.44
2023-04-25T03:39:15.204Z,100519.59
2023-04-25T03:40:22.043Z,100510.56
2023-04-25T03:41:56.227Z,100516.13
2023-04-25T03:42:58.235Z,100517.28
2023-04-25T03:44:00.017Z,100509.56
2023-04-25T03:45:02.703Z,100514.25
2023-04-25T03:46:05.452Z,100512.56
2023-04-25T03:47:07.276Z,100504.53
2023-04-25T03:48:09.718Z,100510.84
2023-04-25T03:49:11.538Z,100496.38
2023-04-25T03:50:48.980Z,100511.78
2023-04-25T03:51:51.068Z,100505.91
2023-04-25T03:52:52.894Z,100506.22
2023-04-25T03:53:54.809Z,100504.69
2023-04-25T03:55:14.808Z,100508.72
2023-04-25T03:56:16.743Z,100508.91
2023-04-25T03:57:21.184Z,100501.84
2023-04-25T03:58:24.761Z,100501.84
2023-04-25T03:59:27.170Z,100500.16
2023-04-25T04:00:29.011Z,100498.47
2023-04-25T04:01:31.043Z,100494.97
2023-04-25T04:02:34.262Z,100487.91
2023-04-25T04:03:39.581Z,100479.88
2023-04-25T04:04:42.310Z,100486.94
2023-04-25T04:05:44.414Z,100485.22
2023-04-25T04:06:46.864Z,100479.88
2023-04-25T04:07:53.837Z,100473.97
2023-04-25T04:08:56.414Z,100473.66
2023-04-25T04:09:58.914Z,100479.19
2023-04-25T04:11:06.341Z,100473.16
2023-04-25T04:12:08.826Z,100471.97
2023-04-25T04:13:12.817Z,100472.97
2023-04-25T04:14:14.631Z,100476.34
2023-04-25T04:15:20.373Z,100471.97
2023-04-25T04:16:23.908Z,100469.31
2023-04-25T04:17:26.280Z,100462.91
2023-04-25T04:18:28.410Z,100477.34
2023-04-25T04:19:31.865Z,100468.47
2023-04-25T04:20:54.381Z,100450.53
2023-04-25T04:21:56.349Z,100481.69
2023-04-25T04:22:58.366Z,100473.97
2023-04-25T04:24:01.107Z,100480.00
2023-04-25T04:25:06.991Z,100474.84
2023-04-25T04:26:33.851Z,100472.56
2023-04-25T04:27:45.729Z,100470.72
2023-04-25T04:29:09.665Z,100473.09
2023-04-25T04:30:16.957Z,100470.56
2023-04-25T04:31:33.783Z,100471.41
2023-04-25T04:32:37.443Z,100469.03
2023-04-25T04:33:40.000Z,100462.97
2023-04-25T04:34:43.353Z,100466.63
2023-04-25T04:35:47.945Z,100447.16
2023-04-25T04:36:52.081Z,100461.91
2023-04-25T04:37:55.673Z,100461.91
2023-04-25T04:38:59.981Z,100464.28
2023-04-25T04:40:16.796Z,100458.09
2023-04-25T04:41:24.719Z,100468.31
2023-04-25T04:42:47.728Z,100468.03
2023-04-25T04:43:57.452Z,100470.03
2023-04-25T04:45:12.241Z,100471.69
2023-04-25T04:46:39.026Z,100478.59
2023-04-25T04:47:56.368Z,100471.41
2023-04-25T04:49:31.182Z,100474.78
2023-04-25T04:50:51.481Z,100472.09
2023-04-25T04:51:53.428Z,100474.38
2023-04-25T04:53:13.825Z,100471.69
2023-04-25T04:54:30.623Z,100465.53
2023-04-25T04:55:51.210Z,100471.69
2023-04-25T04:57:29.324Z,100417.31
2023-04-25T04:58:53.590Z,100467.75
2023-04-25T05:00:16.722Z,100463.13
2023-04-25T05:01:21.616Z,100473.38
2023-04-25T05:02:32.814Z,100479.03
2023-04-25T05:03:54.038Z,100481.59
2023-04-25T05:05:15.943Z,100477.91
2023-04-25T05:06:39.113Z,100485.81
2023-04-25T05:08:04.298Z,100489.97
2023-04-25T05:09:26.804Z,100484.81
2023-04-25T05:11:07.346Z,100486.69
2023-04-25T05:12:14.867Z,100487.84
2023-04-25T05:13:31.519Z,100486.00
2023-04-25T05:14:50.538Z,100479.50
2023-04-25T05:16:10.301Z,100487.22
2023-04-25T05:17:35.021Z,100473.53
2023-04-25T05:18:59.949Z,100471.06
2023-04-25T05:20:27.625Z,100470.56
2023-04-25T05:21:47.193Z,100468.59
2023-04-25T05:23:02.239Z,100467.44
2023-04-25T05:24:29.926Z,100461.22
2023-04-25T05:25:52.104Z,100456.56
2023-04-25T05:27:32.451Z,100460.03
2023-04-25T05:28:38.255Z,100463.84
2023-04-25T05:29:46.367Z,100461.84
2023-04-25T05:31:11.835Z,100463.75
2023-04-25T05:32:31.722Z,100468.78
2023-04-25T05:33:34.013Z,100468.78
2023-04-25T05:34:37.117Z,100472.94
2023-04-25T05:35:41.903Z,100462.94
2023-04-25T05:36:44.481Z,100463.63
2023-04-25T05:37:46.312Z,100467.81
2023-04-25T05:38:49.710Z,100458.78
2023-04-25T05:40:17.155Z,100460.34
2023-04-25T05:41:37.350Z,100455.22
2023-04-25T05:43:01.450Z,100435.75
2023-04-25T05:44:17.831Z,100451.69
2023-04-25T05:45:25.392Z,100447.19
2023-04-25T05:46:47.307Z,100450.22
2023-04-25T05:48:24.080Z,100451.25
2023-04-25T05:49:48.982Z,100457.13
2023-04-25T05:51:13.696Z,100444.41
2023-04-25T05:52:33.949Z,100450.44
2023-04-25T05:53:43.987Z,100445.91
2023-04-25T05:54:47.530Z,100445.22
2023-04-25T05:55:49.623Z,100448.91
2023-04-25T05:56:58.680Z,100438.03
2023-04-25T05:58:00.611Z,100438.84
2023-04-25T05:59:02.556Z,100433.50
2023-04-25T06:00:09.964Z,100433.34
2023-04-25T06:01:18.819Z,100429.31
2023-04-25T06:02:21.958Z,100426.66
2023-04-25T06:03:25.122Z,100421.75
2023-04-25T06:04:27.461Z,100434.50
2023-04-25T06:05:30.136Z,100421.97
2023-04-25T06:06:32.823Z,100428.13
2023-04-25T06:07:35.038Z,100428.81
2023-04-25T06:08:39.477Z,100422.63
2023-04-25T06:09:41.596Z,100417.94
2023-04-25T06:10:44.810Z,100424.13
2023-04-25T06:11:46.784Z,100422.28
2023-04-25T06:12:48.584Z,100431.16
2023-04-25T06:13:52.361Z,100420.44
2023-04-25T06:14:55.350Z,100419.47
2023-04-25T06:15:57.313Z,100419.47
2023-04-25T06:16:59.156Z,100418.59
2023-04-25T06:18:02.347Z,100414.09
2023-04-25T06:19:04.203Z,100399.84
2023-04-25T06:20:07.309Z,100411.41
2023-04-25T06:21:09.249Z,100410.41
2023-04-25T06:22:11.286Z,100407.72
2023-04-25T06:23:15.854Z,100400.50
2023-04-25T06:24:32.889Z,100400.03
2023-04-25T06:25:34.707Z,100392.97
2023-04-25T06:26:37.316Z,100392.13
2023-04-25T06:27:39.652Z,100392.97
2023-04-25T06:28:41.861Z,100385.94
2023-04-25T06:29:44.372Z,100391.31
2023-04-25T06:30:46.403Z,100376.22
2023-04-25T06:31:53.658Z,100376.88
2023-04-25T06:32:56.732Z,100380.56
2023-04-25T06:33:59.161Z,100372.16
2023-04-25T06:35:02.369Z,100367.81
2023-04-25T06:36:04.453Z,100384.25
2023-04-25T06:37:07.219Z,100391.31
2023-04-25T06:38:10.044Z,100385.09
2023-04-25T06:39:13.691Z,100383.25
2023-04-25T06:40:16.075Z,100382.41
2023-04-25T06:41:17.833Z,100378.91
2023-04-25T06:42:19.721Z,100378.03
2023-04-25T06:43:27.810Z,100377.91
2023-04-25T06:44:39.315Z,100375.88
2023-04-25T06:45:44.754Z,100362.63
2023-04-25T06:46:47.772Z,100376.88
2023-04-25T06:47:49.756Z,100346.00
2023-04-25T06:48:52.445Z,100376.03
2023-04-25T06:49:55.247Z,100369.84
2023-04-25T06:50:57.663Z,100370.84
2023-04-25T06:52:00.475Z,100358.28
2023-04-25T06:53:02.690Z,100363.63
2023-04-25T06:54:06.491Z,100364.47
2023-04-25T06:55:16.031Z,100370.53
2023-04-25T06:56:34.120Z,100360.78
2023-04-25T06:57:40.755Z,100371.19
2023-04-25T06:59:01.908Z,100356.09
2023-04-25T07:00:10.643Z,100368.31
2023-04-25T07:01:13.311Z,100364.16
2023-04-25T07:02:15.538Z,100365.16
2023-04-25T07:03:18.178Z,100360.78
2023-04-25T07:04:20.587Z,100359.78
2023-04-25T07:05:33.531Z,100360.47
2023-04-25T07:06:39.136Z,100357.09
2023-04-25T07:07:41.444Z,100329.59
2023-04-25T07:08:43.249Z,100357.94
2023-04-25T07:09:45.312Z,100359.13
2023-04-25T07:10:49.668Z,100357.25
2023-04-25T07:11:52.023Z,100346.34
2023-04-25T07:12:53.910Z,100356.25
2023-04-25T07:13:56.158Z,100358.13
2023-04-25T07:14:58.005Z,100341.31
2023-04-25T07:16:01.238Z,100353.75
2023-04-25T07:17:07.641Z,100354.44
2023-04-25T07:18:10.004Z,100350.88
2023-04-25T07:19:11.954Z,100345.53
2023-04-25T07:20:14.140Z,100344.72
2023-04-25T07:21:16.374Z,100349.06
2023-04-25T07:22:20.248Z,100343.69
2023-04-25T07:23:22.482Z,100341.03
2023-04-25T07:24:24.558Z,100341.84
2023-04-25T07:25:27.762Z,100342.84
2023-04-25T07:26:30.395Z,100348.06
2023-04-25T07:27:53.168Z,100340.34
2023-04-25T07:28:56.797Z,100338.66
2023-04-25T07:30:00.386Z,100328.94
2023-04-25T07:31:02.207Z,100332.63
2023-04-25T07:32:04.243Z,100325.59
2023-04-25T07:33:06.179Z,100326.59
2023-04-25T07:34:09.015Z,100320.22
2023-04-25T07:35:13.527Z,100317.53
2023-04-25T07:36:16.685Z,100319.22
2023-04-25T07:37:20.515Z,100316.53
2023-04-25T07:38:35.549Z,100310.84
2023-04-25T07:39:38.273Z,100303.94
2023-04-25T07:40:40.076Z,100313.66
2023-04-25T07:41:43.949Z,100315.53
2023-04-25T07:42:51.582Z,100301.78
2023-04-25T07:43:59.809Z,100309.84
2023-04-25T07:45:02.333Z,100311.84
2023-04-25T07:46:05.323Z,100306.63
2023-04-25T07:47:10.183Z,100298.59
2023-04-25T07:48:12.294Z,100295.91
2023-04-25T07:49:15.981Z,100303.13
2023-04-25T07:50:19.645Z,100305.81
2023-04-25T07:51:23.267Z,100303.13
2023-04-25T07:52:28.004Z,100305.81
2023-04-25T07:53:38.730Z,100300.09
2023-04-25T07:54:46.325Z,100297.44
2023-04-25T07:55:53.077Z,100300.09
2023-04-25T07:56:56.886Z,100292.22
2023-04-25T07:58:03.357Z,100292.22
2023-04-25T07:59:07.059Z,100251.84
2023-04-25T08:00:12.302Z,100294.22
2023-04-25T08:01:21.839Z,100292.06
2023-04-25T08:02:29.536Z,100294.56
2023-04-25T08:03:31.796Z,100293.06
2023-04-25T08:04:36.025Z,100290.38
2023-04-25T08:05:40.940Z,100290.38
2023-04-25T08:06:43.311Z,100289.38
2023-04-25T08:07:51.996Z,100281.34
2023-04-25T08:08:53.936Z,100285.03
2023-04-25T08:09:58.560Z,100285.03
2023-04-25T08:11:05.307Z,100290.38
2023-04-25T08:12:07.417Z,100285.03
2023-04-25T08:13:09.920Z,100285.03
2023-04-25T08:14:13.620Z,100284.34
2023-04-25T08:15:16.553Z,100281.66
2023-04-25T08:16:18.900Z,100280.66
2023-04-25T08:17:21.769Z,100284.34
2023-04-25T08:18:23.718Z,100277.13
2023-04-25T08:19:26.314Z,100287.03
2023-04-25T08:20:28.195Z,100289.72
2023-04-25T08:21:32.471Z,100281.66
2023-04-25T08:22:37.364Z,100282.50
2023-04-25T08:23:59.624Z,100276.31
2023-04-25T08:25:05.462Z,100292.72
2023-04-25T08:26:08.159Z,100285.03
2023-04-25T08:27:13.445Z,100287.69
2023-04-25T08:28:16.316Z,100282.50
2023-04-25T08:29:19.282Z,100292.22
2023-04-25T08:30:22.409Z,100289.72
2023-04-25T08:31:24.706Z,100292.22
2023-04-25T08:32:40.864Z,100284.00
2023-04-25T08:34:01.638Z,100282.66
2023-04-25T08:35:09.461Z,100288.19
2023-04-25T08:36:11.676Z,100293.72
2023-04-25T08:37:13.637Z,100285.84
2023-04-25T08:38:22.964Z,100285.84
2023-04-25T08:39:25.439Z,100288.72
2023-04-25T08:40:53.370Z,100283.47
2023-04-25T08:41:57.261Z,100288.38
2023-04-25T08:43:01.689Z,100279.66
2023-04-25T08:44:05.732Z,100287.69
2023-04-25T08:45:09.073Z,100264.91
2023-04-25T08:46:14.269Z,100295.75
2023-04-25T08:47:29.396Z,100278.66
2023-04-25T08:48:35.799Z,100287.03
2023-04-25T08:49:46.021Z,100283.84
2023-04-25T08:50:53.769Z,100293.06
2023-04-25T08:52:00.447Z,100293.88
2023-04-25T08:53:05.445Z,100279.66
2023-04-25T08:54:28.052Z,100290.88
2023-04-25T08:55:40.436Z,100287.19
2023-04-25T08:56:46.099Z,100290.03
2023-04-25T08:57:50.264Z,100288.38
2023-04-25T08:58:53.019Z,100288.38
2023-04-25T08:59:55.706Z,100295.75
2023-04-25T09:00:58.951Z,100300.25
2023-04-25T09:02:03.024Z,100291.22
2023-04-25T09:03:07.085Z,100298.44
2023-04-25T09:04:09.551Z,100297.56
2023-04-25T09:05:14.667Z,100299.44
2023-04-25T09:06:18.959Z,100289.53
2023-04-25T09:07:22.385Z,100280.34
2023-04-25T09:08:25.281Z,100298.44
2023-04-25T09:09:28.185Z,100269.94
2023-04-25T09:11:37.980Z,100284.00
2023-04-25T09:12:43.706Z,100291.22
2023-04-25T09:13:46.794Z,100292.06
2023-04-25T09:15:20.629Z,100294.06
2023-04-25T09:16:23.252Z,100283.47
2023-04-25T09:17:59.590Z,100289.38
2023-04-25T09:19:31.931Z,100287.34
2023-04-25T09:21:54.883Z,100283.13
2023-04-25T09:23:07.914Z,100286.84
2023-04-25T09:24:12.444Z,100285.16
2023-04-25T09:25:15.721Z,100285.34
2023-04-25T09:26:20.787Z,100287.38
2023-04-25T09:27:28.081Z,100293.72
2023-04-25T09:29:07.117Z,100286.69
2023-04-25T09:30:10.678Z,100287.69
2023-04-25T09:31:34.391Z,100284.00
2023-04-25T09:32:37.908Z,100286.84
2023-04-25T09:33:42.118Z,100286.34
2023-04-25T09:34:49.503Z,100276.47
2023-04-25T09:35:56.362Z,100288.19
2023-04-25T09:37:06.494Z,100272.97
2023-04-25T09:38:45.763Z,100291.03
2023-04-25T09:39:59.713Z,100288.50
2023-04-25T09:41:02.032Z,100293.88
2023-04-25T09:42:26.350Z,100283.66
2023-04-25T09:43:28.917Z,100296.75
2023-04-25T09:44:31.778Z,100288.84
2023-04-25T09:45:42.657Z,100284.69
2023-04-25T09:46:44.676Z,100286.34
2023-04-25T09:47:58.886Z,100288.84
2023-04-25T09:49:08.936Z,100293.22
2023-04-25T09:50:20.508Z,100288.34
2023-04-25T09:51:28.937Z,100293.06
2023-04-25T09:52:33.111Z,100286.00
2023-04-25T09:53:55.136Z,100290.03
2023-04-25T09:55:07.364Z,100284.66
2023-04-25T09:56:13.167Z,100289.50
2023-04-25T09:57:20.130Z,100282.00
2023-04-25T09:58:25.134Z,100293.22
2023-04-25T09:59:29.121Z,100281.47
2023-04-25T10:00:32.233Z,100293.22
2023-04-25T10:01:44.376Z,100291.38
2023-04-25T10:03:01.872Z,100287.34
2023-04-25T10:04:31.126Z,100279.97
2023-04-25T10:06:08.330Z,100288.34
2023-04-25T10:07:10.667Z,100303.09
2023-04-25T10:08:14.041Z,100288.34
2023-04-25T10:09:16.948Z,100294.72
2023-04-25T10:10:20.973Z,100288.69
2023-04-25T10:11:24.224Z,100280.13
2023-04-25T10:12:27.120Z,100284.34
2023-04-25T10:13:31.843Z,100286.16
2023-04-25T10:14:34.592Z,100287.03
2023-04-25T10:15:40.405Z,100285.34
2023-04-25T10:16:42.981Z,100271.59
2023-04-25T10:17:44.966Z,100277.13
2023-04-25T10:18:46.780Z,100291.72
2023-04-25T10:19:49.054Z,100284.69
2023-04-25T10:20:53.313Z,100291.72
2023-04-25T10:22:21.234Z,100284.66
2023-04-25T10:23:24.209Z,100287.19
2023-04-25T10:24:27.013Z,100286.69
2023-04-25T10:25:29.065Z,100285.81
2023-04-25T10:26:31.354Z,100283.34
2023-04-25T10:27:33.293Z,100280.66
2023-04-25T10:29:04.660Z,100273.13
2023-04-25T10:30:13.677Z,100272.41
2023-04-25T10:31:17.673Z,100278.28
2023-04-25T10:32:19.733Z,100275.78
2023-04-25T10:33:50.828Z,100266.72
2023-04-25T10:34:52.891Z,100282.31
2023-04-25T10:35:59.252Z,100279.28
2023-04-25T10:37:04.594Z,100285.34
2023-04-25T10:38:15.658Z,100267.56
2023-04-25T10:39:23.682Z,100291.53
2023-04-25T10:40:26.201Z,100281.63
2023-04-25T10:41:30.567Z,100283.66
2023-04-25T10:42:32.679Z,100278.97
2023-04-25T10:43:44.577Z,100281.81
2023-04-25T10:45:06.452Z,100284.16
2023-04-25T10:46:19.802Z,100288.19
2023-04-25T10:47:36.817Z,100288.66
2023-04-25T10:48:38.686Z,100285.97
2023-04-25T10:49:43.933Z,100294.38
2023-04-25T10:50:45.809Z,100290.88
2023-04-25T10:51:55.384Z,100286.50
2023-04-25T10:53:15.897Z,100289.50
2023-04-25T10:54:19.190Z,100282.63
2023-04-25T10:55:21.354Z,100288.66
2023-04-25T10:56:26.329Z,100270.25
2023-04-25T10:57:38.516Z,100278.94
2023-04-25T10:58:44.863Z,100283.28
2023-04-25T10:59:46.995Z,100288.66
2023-04-25T11:01:58.581Z,100282.28
2023-04-25T11:03:00.883Z,100276.09
2023-04-25T11:04:03.195Z,100244.59
2023-04-25T11:05:05.916Z,100259.84
2023-04-25T11:06:23.669Z,100277.09
2023-04-25T11:07:36.134Z,100272.22
2023-04-25T11:08:49.987Z,100269.19
2023-04-25T11:09:52.981Z,100270.88
2023-04-25T11:10:56.004Z,100271.22
2023-04-25T11:11:59.512Z,100259.66
2023-04-25T11:13:01.714Z,100261.47
2023-04-25T11:14:03.627Z,100259.66
2023-04-25T11:15:07.581Z,100256.31
2023-04-25T11:16:13.308Z,100268.72
2023-04-25T11:17:15.573Z,100262.34
2023-04-25T11:18:18.156Z,100252.09
2023-04-25T11:19:21.482Z,100254.44
2023-04-25T11:20:27.336Z,100261.47
2023-04-25T11:21:30.185Z,100255.28
2023-04-25T11:22:32.637Z,100248.06
2023-04-25T11:23:34.436Z,100258.78
2023-04-25T11:24:37.598Z,100257.13
2023-04-25T11:25:39.491Z,100259.81
2023-04-25T11:26:48.608Z,100260.81
2023-04-25T11:27:54.351Z,100252.63
2023-04-25T11:29:02.995Z,100259.66
2023-04-25T11:30:12.477Z,100256.78
2023-04-25T11:31:14.345Z,100260.13
2023-04-25T11:32:18.008Z,100261.31
2023-04-25T11:33:26.681Z,100262.16
2023-04-25T11:34:31.908Z,100269.19
2023-04-25T11:35:34.705Z,100266.50
2023-04-25T11:36:39.340Z,100260.47
2023-04-25T11:37:42.390Z,100259.47
2023-04-25T11:38:44.201Z,100256.78
2023-04-25T11:39:47.423Z,100251.75
2023-04-25T11:40:53.627Z,100255.97
2023-04-25T11:41:56.331Z,100256.13
2023-04-25T11:43:01.653Z,100232.66
2023-04-25T11:44:04.378Z,100253.09
2023-04-25T11:45:07.266Z,100246.38
2023-04-25T11:46:09.409Z,100248.56
2023-04-25T11:47:11.337Z,100252.25
2023-04-25T11:48:13.173Z,100249.75
2023-04-25T11:49:16.271Z,100262.16
2023-04-25T11:50:18.102Z,100251.41
2023-04-25T11:51:19.900Z,100248.91
2023-04-25T11:52:21.924Z,100261.31
2023-04-25T11:53:25.833Z,100244.38
2023-04-25T11:54:27.663Z,100250.41
2023-04-25T11:55:31.564Z,100250.59
2023-04-25T11:56:33.799Z,100253.09
2023-04-25T11:57:36.719Z,100241.38
2023-04-25T11:58:57.028Z,100250.78
2023-04-25T12:00:19.299Z,100254.47
2023-04-25T12:01:35.506Z,100254.13
2023-04-25T12:02:38.062Z,100245.06
2023-04-25T12:03:47.644Z,100246.44
2023-04-25T12:04:50.013Z,100247.41
2023-04-25T12:05:52.754Z,100243.00
2023-04-25T12:06:56.267Z,100241.34
2023-04-25T12:07:58.510Z,100245.88
2023-04-25T12:09:05.205Z,100216.09
2023-04-25T12:10:08.947Z,100230.59
2023-04-25T12:11:22.639Z,100231.63
2023-04-25T12:12:29.142Z,100242.03
2023-04-25T12:13:32.695Z,100240.34
2023-04-25T12:14:36.811Z,100233.28
2023-04-25T12:15:42.123Z,100228.94
2023-04-25T12:16:48.160Z,100229.78
2023-04-25T12:17:52.212Z,100227.91
2023-04-25T12:18:54.538Z,100227.91
2023-04-25T12:19:56.410Z,100224.41
2023-04-25T12:20:59.259Z,100215.41
2023-04-25T12:22:02.556Z,100219.22
2023-04-25T12:23:08.858Z,100222.91
2023-04-25T12:24:17.330Z,100226.25
2023-04-25T12:25:41.008Z,100219.41
2023-04-25T12:27:00.212Z,100219.41
2023-04-25T12:28:15.356Z,100228.97
2023-04-25T12:29:22.821Z,100224.78
2023-04-25T12:30:24.637Z,100225.94
2023-04-25T12:31:27.199Z,100234.97
2023-04-25T12:32:29.118Z,100235.97
2023-04-25T12:33:35.465Z,100236.31
2023-04-25T12:34:37.363Z,100228.28
2023-04-25T12:35:39.183Z,100231.97
2023-04-25T12:36:41.538Z,100227.25
2023-04-25T12:37:43.327Z,100229.94
2023-04-25T12:38:45.234Z,100223.91
2023-04-25T12:39:47.217Z,100223.91
2023-04-25T12:40:49.072Z,100220.22